createdAt,value
2024-02-29T00:00:50.365Z,100305.19
2024-02-29T00:01:47.688Z,100296.47
2024-02-29T00:02:45.268Z,100304.66
2024-02-29T00:03:42.306Z,100307.91
2024-02-29T00:04:39.515Z,100297.81
2024-02-29T00:05:38.268Z,100311.63
2024-02-29T00:06:36.163Z,100293.09
2024-02-29T00:07:33.392Z,100290.56
2024-02-29T00:08:30.453Z,100294.25
2024-02-29T00:09:27.639Z,100292.09
2024-02-29T00:10:24.799Z,100293.41
2024-02-29T00:11:22.650Z,100297.31
2024-02-29T00:12:20.206Z,100293.91
2024-02-29T00:13:17.217Z,100296.44
2024-02-29T00:14:14.477Z,100296.78
2024-02-29T00:15:12.620Z,100291.91
2024-02-29T00:16:09.663Z,100281.97
2024-02-29T00:17:07.417Z,100280.59
2024-02-29T00:18:04.741Z,100278.53
2024-02-29T00:19:01.957Z,100273.12
2024-02-29T00:19:59.316Z,100280.50
2024-02-29T00:20:56.539Z,100277.47
2024-02-29T00:21:53.837Z,100281.63
2024-02-29T00:22:51.051Z,100283.03
2024-02-29T00:23:48.452Z,100282.53
2024-02-29T00:24:45.497Z,100281.78
2024-02-29T00:25:42.642Z,100292.88
2024-02-29T00:26:39.770Z,100288.31
2024-02-29T00:27:36.915Z,100284.63
2024-02-29T00:28:33.980Z,100284.00
2024-02-29T00:29:31.216Z,100283.63
2024-02-29T00:30:28.431Z,100290.34
2024-02-29T00:31:26.134Z,100286.19
2024-02-29T00:32:23.356Z,100284.59
2024-02-29T00:33:20.488Z,100284.37
2024-02-29T00:34:17.682Z,100283.06
2024-02-29T00:35:14.984Z,100277.75
2024-02-29T00:36:12.142Z,100283.94
2024-02-29T00:37:09.291Z,100285.56
2024-02-29T00:38:06.568Z,100287.91
2024-02-29T00:39:11.492Z,100281.28
2024-02-29T00:40:12.190Z,100283.31
2024-02-29T00:41:09.498Z,100274.53
2024-02-29T00:42:06.785Z,100279.62
2024-02-29T00:43:04.310Z,100272.22
2024-02-29T00:44:01.594Z,100281.97
2024-02-29T00:44:58.866Z,100277.13
2024-02-29T00:45:56.284Z,100280.22
2024-02-29T00:46:53.444Z,100273.53
2024-02-29T00:47:52.252Z,100272.31
2024-02-29T00:48:49.599Z,100269.91
2024-02-29T00:49:46.795Z,100270.47
2024-02-29T00:50:43.910Z,100271.00
2024-02-29T00:51:41.000Z,100261.84
2024-02-29T00:52:39.401Z,100266.16
2024-02-29T00:53:36.556Z,100268.00
2024-02-29T00:54:33.819Z,100267.94
2024-02-29T00:55:30.955Z,100270.44
2024-02-29T00:56:28.044Z,100260.72
2024-02-29T00:57:25.508Z,100260.00
2024-02-29T00:58:23.406Z,100263.56
2024-02-29T00:59:20.487Z,100272.22
2024-02-29T01:00:17.842Z,100259.69
2024-02-29T01:01:15.088Z,100264.09
2024-02-29T01:02:12.340Z,100266.47
2024-02-29T01:03:10.226Z,100259.88
2024-02-29T01:04:07.401Z,100262.41
2024-02-29T01:05:05.807Z,100258.03
2024-02-29T01:06:03.043Z,100257.03
2024-02-29T01:07:00.147Z,100263.56
2024-02-29T01:07:57.230Z,100258.88
2024-02-29T01:08:54.345Z,100250.44
2024-02-29T01:09:51.540Z,100262.06
2024-02-29T01:10:49.044Z,100251.78
2024-02-29T01:11:46.318Z,100258.03
2024-02-29T01:12:44.123Z,100249.56
2024-02-29T01:13:41.388Z,100250.28
2024-02-29T01:14:38.540Z,100250.09
2024-02-29T01:15:35.810Z,100256.28
2024-02-29T01:16:32.884Z,100264.37
2024-02-29T01:17:30.162Z,100249.72
2024-02-29T01:18:27.548Z,100245.34
2024-02-29T01:19:24.745Z,100240.84
2024-02-29T01:20:21.891Z,100239.31
2024-02-29T01:21:19.132Z,100240.66
2024-02-29T01:22:18.027Z,100241.66
2024-02-29T01:23:15.616Z,100236.06
2024-02-29T01:24:12.705Z,100240.16
2024-02-29T01:25:10.344Z,100232.69
2024-02-29T01:26:08.176Z,100235.22
2024-02-29T01:27:05.418Z,100234.56
2024-02-29T01:28:02.513Z,100235.09
2024-02-29T01:28:59.756Z,100231.03
2024-02-29T01:29:56.871Z,100229.03
2024-02-29T01:30:54.045Z,100237.31
2024-02-29T01:31:51.188Z,100240.59
2024-02-29T01:32:48.721Z,100244.47
2024-02-29T01:33:45.905Z,100241.28
2024-02-29T01:34:43.115Z,100228.56
2024-02-29T01:35:40.277Z,100223.06
2024-02-29T01:36:37.454Z,100224.44
2024-02-29T01:37:34.600Z,100227.72
2024-02-29T01:38:31.663Z,100235.22
2024-02-29T01:39:28.860Z,100241.44
2024-02-29T01:40:26.532Z,100236.41
2024-02-29T01:41:23.863Z,100230.00
2024-02-29T01:42:21.024Z,100236.28
2024-02-29T01:43:18.267Z,100232.72
2024-02-29T01:44:15.463Z,100236.78
2024-02-29T01:45:13.646Z,100239.78
2024-02-29T01:46:15.212Z,100235.56
2024-02-29T01:47:14.249Z,100241.28
2024-02-29T01:48:12.213Z,100240.94
2024-02-29T01:49:09.555Z,100241.28
2024-02-29T01:50:09.455Z,100234.84
2024-02-29T01:51:08.212Z,100240.19
2024-02-29T01:52:05.557Z,100238.88
2024-02-29T01:53:02.842Z,100236.34
2024-02-29T01:53:59.988Z,100238.84
2024-02-29T01:54:57.157Z,100237.44
2024-02-29T01:55:54.406Z,100235.19
2024-02-29T01:56:52.185Z,100234.03
2024-02-29T01:57:49.662Z,100227.59
2024-02-29T01:58:47.003Z,100226.19
2024-02-29T01:59:44.773Z,100235.69
2024-02-29T02:00:42.061Z,100236.63
2024-02-29T02:01:40.214Z,100228.59
2024-02-29T02:02:40.055Z,100231.03
2024-02-29T02:03:38.708Z,100229.50
2024-02-29T02:04:36.049Z,100226.28
2024-02-29T02:05:33.152Z,100224.16
2024-02-29T02:06:30.283Z,100223.37
2024-02-29T02:07:27.576Z,100220.00
2024-02-29T02:08:27.646Z,100226.66
2024-02-29T02:09:25.367Z,100220.72
2024-02-29T02:10:22.975Z,100216.72
2024-02-29T02:11:20.235Z,100218.91
2024-02-29T02:12:17.497Z,100220.88
2024-02-29T02:13:14.754Z,100224.88
2024-02-29T02:14:11.896Z,100224.09
2024-02-29T02:15:09.668Z,100221.91
2024-02-29T02:16:07.623Z,100229.28
2024-02-29T02:17:04.986Z,100221.75
2024-02-29T02:18:02.071Z,100224.06
2024-02-29T02:18:59.298Z,100219.16
2024-02-29T02:19:57.351Z,100213.72
2024-02-29T02:20:57.300Z,100211.03
2024-02-29T02:21:54.523Z,100215.75
2024-02-29T02:22:51.843Z,100220.72
2024-02-29T02:23:48.867Z,100218.81
2024-02-29T02:24:46.065Z,100214.47
2024-02-29T02:25:43.269Z,100216.22
2024-02-29T02:26:40.290Z,100217.03
2024-02-29T02:27:40.409Z,100215.00
2024-02-29T02:28:37.540Z,100220.19
2024-02-29T02:29:34.773Z,100220.34
2024-02-29T02:30:32.275Z,100223.16
2024-02-29T02:31:30.660Z,100225.34
2024-02-29T02:32:27.923Z,100223.81
2024-02-29T02:33:25.202Z,100226.38
2024-02-29T02:34:22.309Z,100224.47
2024-02-29T02:35:19.493Z,100223.81
2024-02-29T02:36:16.562Z,100219.41
2024-02-29T02:37:13.686Z,100218.47
2024-02-29T02:38:10.952Z,100219.31
2024-02-29T02:39:09.425Z,100217.41
2024-02-29T02:40:07.449Z,100218.72
2024-02-29T02:41:04.861Z,100214.47
2024-02-29T02:42:02.722Z,100208.97
2024-02-29T02:43:00.006Z,100211.78
2024-02-29T02:43:57.118Z,100213.44
2024-02-29T02:44:54.330Z,100220.66
2024-02-29T02:45:51.478Z,100220.47
2024-02-29T02:46:49.445Z,100218.75
2024-02-29T02:47:46.739Z,100222.12
2024-02-29T02:48:44.334Z,100222.72
2024-02-29T02:49:44.189Z,100221.59
2024-02-29T02:50:41.347Z,100221.34
2024-02-29T02:51:38.606Z,100227.78
2024-02-29T02:52:35.826Z,100225.94
2024-02-29T02:53:33.126Z,100227.19
2024-02-29T02:54:30.403Z,100223.59
2024-02-29T02:55:27.660Z,100232.03
2024-02-29T02:56:24.848Z,100231.56
2024-02-29T02:57:21.925Z,100235.22
2024-02-29T02:58:18.940Z,100223.50
2024-02-29T02:59:16.085Z,100222.19
2024-02-29T03:00:13.970Z,100222.91
2024-02-29T03:01:11.173Z,100224.50
2024-02-29T03:02:08.470Z,100213.53
2024-02-29T03:03:06.003Z,100221.41
2024-02-29T03:04:03.110Z,100218.25
2024-02-29T03:05:03.086Z,100228.34
2024-02-29T03:06:00.207Z,100226.94
2024-02-29T03:06:57.304Z,100219.06
2024-02-29T03:07:54.303Z,100216.56
2024-02-29T03:08:51.360Z,100217.28
2024-02-29T03:09:48.625Z,100222.69
2024-02-29T03:10:45.719Z,100222.88
2024-02-29T03:11:42.875Z,100223.00
2024-02-29T03:12:40.149Z,100223.94
2024-02-29T03:13:37.777Z,100225.78
2024-02-29T03:14:34.898Z,100226.25
2024-02-29T03:15:32.083Z,100223.50
2024-02-29T03:16:29.361Z,100228.84
2024-02-29T03:17:26.414Z,100219.87
2024-02-29T03:18:23.490Z,100227.31
2024-02-29T03:19:20.591Z,100227.25
2024-02-29T03:20:17.845Z,100221.03
2024-02-29T03:21:16.122Z,100232.47
2024-02-29T03:22:13.436Z,100227.47
2024-02-29T03:23:10.576Z,100229.47
2024-02-29T03:24:07.798Z,100230.06
2024-02-29T03:25:05.166Z,100231.78
2024-02-29T03:26:02.413Z,100230.06
2024-02-29T03:26:59.547Z,100231.19
2024-02-29T03:27:56.957Z,100235.09
2024-02-29T03:28:53.983Z,100232.78
2024-02-29T03:29:51.375Z,100228.28
2024-02-29T03:30:48.427Z,100231.69
2024-02-29T03:31:46.837Z,100228.00
2024-02-29T03:32:44.740Z,100228.94
2024-02-29T03:33:42.319Z,100233.50
2024-02-29T03:34:39.499Z,100231.38
2024-02-29T03:35:36.622Z,100233.13
2024-02-29T03:36:33.900Z,100234.31
2024-02-29T03:37:30.992Z,100234.91
2024-02-29T03:38:28.234Z,100227.19
2024-02-29T03:39:25.326Z,100229.84
2024-02-29T03:40:22.403Z,100226.72
2024-02-29T03:41:19.723Z,100226.97
2024-02-29T03:42:18.762Z,100229.25
2024-02-29T03:43:16.171Z,100227.94
2024-02-29T03:44:13.416Z,100230.63
2024-02-29T03:45:10.734Z,100233.16
2024-02-29T03:46:07.971Z,100235.16
2024-02-29T03:47:06.122Z,100233.91
2024-02-29T03:48:03.282Z,100242.31
2024-02-29T03:49:00.704Z,100236.78
2024-02-29T03:49:58.964Z,100228.41
2024-02-29T03:50:56.067Z,100234.84
2024-02-29T03:51:53.156Z,100230.97
2024-02-29T03:52:50.238Z,100229.03
2024-02-29T03:53:47.375Z,100235.25
2024-02-29T03:54:46.537Z,100227.66
2024-02-29T03:55:45.033Z,100234.91
2024-02-29T03:56:42.149Z,100237.37
2024-02-29T03:57:39.227Z,100242.41
2024-02-29T03:58:36.414Z,100234.03
2024-02-29T03:59:34.056Z,100230.47
2024-02-29T04:00:31.353Z,100226.59
2024-02-29T04:01:28.756Z,100225.09
2024-02-29T04:02:25.904Z,100225.62
2024-02-29T04:03:23.158Z,100221.13
2024-02-29T04:04:21.522Z,100222.75
2024-02-29T04:05:18.678Z,100224.34
2024-02-29T04:06:15.779Z,100228.03
2024-02-29T04:07:12.925Z,100225.81
2024-02-29T04:08:12.851Z,100225.31
2024-02-29T04:09:10.850Z,100224.81
2024-02-29T04:10:08.385Z,100231.22
2024-02-29T04:11:05.867Z,100223.09
2024-02-29T04:12:03.036Z,100222.75
2024-02-29T04:13:00.221Z,100219.44
2024-02-29T04:13:57.691Z,100211.50
2024-02-29T04:14:54.927Z,100213.59
2024-02-29T04:15:52.014Z,100213.50
2024-02-29T04:16:49.109Z,100203.44
2024-02-29T04:17:46.219Z,100201.41
2024-02-29T04:18:43.378Z,100208.12
2024-02-29T04:19:40.772Z,100204.84
2024-02-29T04:20:37.881Z,100202.63
2024-02-29T04:21:35.521Z,100209.25
2024-02-29T04:22:32.519Z,100208.03
2024-02-29T04:23:29.572Z,100202.56
2024-02-29T04:24:26.634Z,100197.53
2024-02-29T04:25:26.645Z,100194.47
2024-02-29T04:26:25.543Z,100191.94
2024-02-29T04:27:22.608Z,100181.91
2024-02-29T04:28:19.817Z,100185.72
2024-02-29T04:29:16.989Z,100187.69
2024-02-29T04:30:15.406Z,100186.03
2024-02-29T04:31:12.674Z,100185.06
2024-02-29T04:32:09.961Z,100185.06
2024-02-29T04:33:08.170Z,100187.44
2024-02-29T04:34:05.353Z,100184.47
2024-02-29T04:35:02.420Z,100181.56
2024-02-29T04:35:59.575Z,100186.47
2024-02-29T04:36:56.681Z,100183.78
2024-02-29T04:37:53.844Z,100186.69
2024-02-29T04:38:51.418Z,100186.56
2024-02-29T04:39:48.592Z,100182.87
2024-02-29T04:40:45.709Z,100188.31
2024-02-29T04:41:43.028Z,100187.56
2024-02-29T04:42:41.256Z,100179.22
2024-02-29T04:43:38.698Z,100180.25
2024-02-29T04:44:35.649Z,100177.09
2024-02-29T04:45:32.810Z,100182.94
2024-02-29T04:46:30.521Z,100178.41
2024-02-29T04:47:27.643Z,100178.59
2024-02-29T04:48:24.696Z,100181.19
2024-02-29T04:49:21.836Z,100185.28
2024-02-29T04:50:19.783Z,100183.97
2024-02-29T04:51:16.928Z,100191.66
2024-02-29T04:52:14.070Z,100197.06
2024-02-29T04:53:11.343Z,100195.44
2024-02-29T04:54:08.916Z,100198.94
2024-02-29T04:55:06.481Z,100189.28
2024-02-29T04:56:05.543Z,100198.81
2024-02-29T04:57:02.979Z,100200.34
2024-02-29T04:58:00.153Z,100206.66
2024-02-29T04:58:57.273Z,100206.59
2024-02-29T04:59:54.566Z,100198.12
2024-02-29T05:00:51.970Z,100194.22
2024-02-29T05:01:49.233Z,100201.03
2024-02-29T05:02:46.506Z,100199.63
2024-02-29T05:03:43.592Z,100197.31
2024-02-29T05:04:40.966Z,100198.81
2024-02-29T05:05:38.126Z,100195.97
2024-02-29T05:06:35.310Z,100197.19
2024-02-29T05:07:33.043Z,100191.03
2024-02-29T05:08:30.202Z,100186.84
2024-02-29T05:09:28.136Z,100187.62
2024-02-29T05:10:25.260Z,100185.72
2024-02-29T05:11:22.442Z,100180.41
2024-02-29T05:12:21.263Z,100188.34
2024-02-29T05:13:18.354Z,100187.03
2024-02-29T05:14:15.429Z,100187.75
2024-02-29T05:15:13.014Z,100189.75
2024-02-29T05:16:10.226Z,100191.72
2024-02-29T05:17:07.420Z,100189.81
2024-02-29T05:18:05.124Z,100185.16
2024-02-29T05:19:02.552Z,100191.62
2024-02-29T05:20:00.508Z,100185.06
2024-02-29T05:20:57.645Z,100185.16
2024-02-29T05:21:56.647Z,100190.66
2024-02-29T05:22:55.178Z,100188.72
2024-02-29T05:23:52.334Z,100187.53
2024-02-29T05:24:49.494Z,100189.37
2024-02-29T05:25:46.459Z,100190.31
2024-02-29T05:26:43.636Z,100185.44
2024-02-29T05:27:40.863Z,100183.78
2024-02-29T05:28:38.250Z,100185.78
2024-02-29T05:29:35.453Z,100181.94
2024-02-29T05:30:32.573Z,100181.59
2024-02-29T05:31:29.664Z,100182.97
2024-02-29T05:32:26.812Z,100181.97
2024-02-29T05:33:24.131Z,100178.81
2024-02-29T05:34:25.363Z,100171.03
2024-02-29T05:35:24.415Z,100172.50
2024-02-29T05:36:21.681Z,100172.53
2024-02-29T05:37:19.127Z,100178.53
2024-02-29T05:38:16.474Z,100177.25
2024-02-29T05:39:13.670Z,100169.16
2024-02-29T05:40:12.074Z,100172.69
2024-02-29T05:41:09.414Z,100176.16
2024-02-29T05:42:06.873Z,100177.41
2024-02-29T05:43:05.091Z,100185.81
2024-02-29T05:44:02.246Z,100178.16
2024-02-29T05:44:59.396Z,100184.97
2024-02-29T05:45:56.635Z,100185.81
2024-02-29T05:46:53.658Z,100182.78
2024-02-29T05:47:51.968Z,100175.84
2024-02-29T05:48:49.227Z,100185.78
2024-02-29T05:49:46.269Z,100185.22
2024-02-29T05:50:43.364Z,100181.25
2024-02-29T05:51:40.414Z,100186.72
2024-02-29T05:52:37.918Z,100181.09
2024-02-29T05:53:35.720Z,100182.78
2024-02-29T05:54:32.808Z,100185.78
2024-02-29T05:55:29.925Z,100186.25
2024-02-29T05:56:27.017Z,100183.16
2024-02-29T05:57:25.959Z,100182.97
2024-02-29T05:58:23.047Z,100183.34
2024-02-29T05:59:21.956Z,100185.69
2024-02-29T06:00:19.413Z,100183.91
2024-02-29T06:01:16.670Z,100184.34
2024-02-29T06:02:14.100Z,100180.91
2024-02-29T06:03:11.518Z,100178.47
2024-02-29T06:04:08.699Z,100174.66
2024-02-29T06:05:07.444Z,100174.34
2024-02-29T06:06:06.130Z,100171.34
2024-02-29T06:07:03.289Z,100164.22
2024-02-29T06:08:00.355Z,100170.41
2024-02-29T06:08:57.369Z,100171.22
2024-02-29T06:09:54.383Z,100167.47
2024-02-29T06:10:51.502Z,100164.81
2024-02-29T06:11:49.395Z,100178.44
2024-02-29T06:12:47.127Z,100174.81
2024-02-29T06:13:44.741Z,100172.47
2024-02-29T06:14:41.996Z,100173.22
2024-02-29T06:15:39.315Z,100178.06
2024-02-29T06:16:36.611Z,100179.50
2024-02-29T06:17:33.821Z,100179.44
2024-02-29T06:18:31.007Z,100184.59
2024-02-29T06:19:28.557Z,100189.28
2024-02-29T06:20:25.535Z,100190.13
2024-02-29T06:21:22.670Z,100191.50
2024-02-29T06:22:24.396Z,100190.31
2024-02-29T06:23:21.521Z,100188.25
2024-02-29T06:24:20.364Z,100189.91
2024-02-29T06:25:19.187Z,100189.31
2024-02-29T06:26:16.586Z,100187.19
2024-02-29T06:27:13.773Z,100188.69
2024-02-29T06:28:10.978Z,100181.69
2024-02-29T06:29:08.064Z,100181.59
2024-02-29T06:30:07.723Z,100185.91
2024-02-29T06:31:05.062Z,100189.69
2024-02-29T06:32:03.241Z,100182.00
2024-02-29T06:33:00.879Z,100182.87
2024-02-29T06:33:59.586Z,100184.69
2024-02-29T06:34:56.730Z,100184.66
2024-02-29T06:35:53.980Z,100184.50
2024-02-29T06:36:51.314Z,100184.69
2024-02-29T06:37:48.428Z,100182.06
2024-02-29T06:38:45.675Z,100182.25
2024-02-29T06:39:43.018Z,100182.78
2024-02-29T06:40:40.057Z,100181.84
2024-02-29T06:41:37.891Z,100184.25
2024-02-29T06:42:35.133Z,100180.88
2024-02-29T06:43:33.412Z,100176.13
2024-02-29T06:44:30.710Z,100178.91
2024-02-29T06:45:27.869Z,100174.97
2024-02-29T06:46:24.934Z,100172.94
2024-02-29T06:47:22.097Z,100172.16
2024-02-29T06:48:20.199Z,100171.41
2024-02-29T06:49:17.331Z,100168.31
2024-02-29T06:50:14.625Z,100174.12
2024-02-29T06:51:11.663Z,100172.25
2024-02-29T06:52:08.814Z,100170.06
2024-02-29T06:53:05.828Z,100164.12
2024-02-29T06:54:04.109Z,100173.69
2024-02-29T06:55:01.397Z,100168.03
2024-02-29T06:55:58.875Z,100166.81
2024-02-29T06:56:56.186Z,100168.06
2024-02-29T06:57:53.322Z,100169.28
2024-02-29T06:58:50.699Z,100154.53
2024-02-29T06:59:49.924Z,100161.50
2024-02-29T07:00:49.432Z,100163.56
2024-02-29T07:01:46.673Z,100157.22
2024-02-29T07:02:43.927Z,100154.50
2024-02-29T07:03:41.428Z,100150.06
2024-02-29T07:04:39.406Z,100153.78
2024-02-29T07:05:38.366Z,100154.69
2024-02-29T07:06:36.225Z,100154.28
2024-02-29T07:07:33.429Z,100157.91
2024-02-29T07:08:32.638Z,100157.25
2024-02-29T07:09:29.723Z,100166.88
2024-02-29T07:10:26.767Z,100161.38
2024-02-29T07:11:24.409Z,100164.75
2024-02-29T07:12:22.006Z,100164.34
2024-02-29T07:13:19.272Z,100160.50
2024-02-29T07:14:17.989Z,100161.78
2024-02-29T07:15:15.632Z,100153.38
2024-02-29T07:16:12.784Z,100148.63
2024-02-29T07:17:09.996Z,100153.31
2024-02-29T07:18:07.901Z,100158.19
2024-02-29T07:19:05.545Z,100148.16
2024-02-29T07:20:05.122Z,100160.53
2024-02-29T07:21:02.258Z,100151.69
2024-02-29T07:21:59.383Z,100151.84
2024-02-29T07:22:57.998Z,100148.09
2024-02-29T07:23:54.996Z,100146.47
2024-02-29T07:24:52.057Z,100148.94
2024-02-29T07:25:49.244Z,100145.28
2024-02-29T07:26:46.606Z,100147.47
2024-02-29T07:27:46.257Z,100152.16
2024-02-29T07:28:43.476Z,100143.28
2024-02-29T07:29:40.605Z,100145.81
2024-02-29T07:30:37.984Z,100139.56
2024-02-29T07:31:35.074Z,100140.25
2024-02-29T07:32:32.145Z,100137.72
2024-02-29T07:33:30.056Z,100136.03
2024-02-29T07:34:27.166Z,100135.03
2024-02-29T07:35:24.666Z,100139.91
2024-02-29T07:36:21.836Z,100139.91
2024-02-29T07:37:19.175Z,100137.22
2024-02-29T07:38:16.416Z,100128.06
2024-02-29T07:39:13.904Z,100134.47
2024-02-29T07:40:11.165Z,100132.31
2024-02-29T07:41:08.318Z,100124.00
2024-02-29T07:42:05.591Z,100122.03
2024-02-29T07:43:02.650Z,100125.37
2024-02-29T07:43:59.774Z,100130.75
2024-02-29T07:44:57.794Z,100124.50
2024-02-29T07:45:55.007Z,100126.03
2024-02-29T07:46:52.257Z,100121.81
2024-02-29T07:47:49.320Z,100122.81
2024-02-29T07:48:46.517Z,100117.78
2024-02-29T07:49:43.907Z,100116.13
2024-02-29T07:50:40.964Z,100118.28
2024-02-29T07:51:38.125Z,100119.44
2024-02-29T07:52:39.740Z,100114.19
2024-02-29T07:53:37.018Z,100120.12
2024-02-29T07:54:34.138Z,100114.72
2024-02-29T07:55:31.496Z,100115.09
2024-02-29T07:56:30.322Z,100118.03
2024-02-29T07:57:31.106Z,100114.00
2024-02-29T07:58:29.288Z,100110.63
2024-02-29T07:59:27.016Z,100114.59
2024-02-29T08:00:24.439Z,100112.38
2024-02-29T08:01:21.644Z,100114.59
2024-02-29T08:02:21.195Z,100105.91
2024-02-29T08:03:19.573Z,100113.94
2024-02-29T08:04:16.790Z,100109.28
2024-02-29T08:05:14.267Z,100113.06
2024-02-29T08:06:11.300Z,100114.69
2024-02-29T08:07:08.450Z,100115.22
2024-02-29T08:08:06.015Z,100108.37
2024-02-29T08:09:09.507Z,100116.22
2024-02-29T08:10:08.343Z,100108.88
2024-02-29T08:11:08.639Z,100115.50
2024-02-29T08:12:07.091Z,100107.09
2024-02-29T08:13:04.499Z,100111.50
2024-02-29T08:14:02.273Z,100107.56
2024-02-29T08:14:59.483Z,100103.16
2024-02-29T08:15:56.705Z,100104.13
2024-02-29T08:16:53.692Z,100100.84
2024-02-29T08:17:50.963Z,100106.75
2024-02-29T08:18:48.826Z,100100.09
2024-02-29T08:19:47.068Z,100101.59
2024-02-29T08:20:47.452Z,100103.66
2024-02-29T08:21:44.720Z,100099.84
2024-02-29T08:22:41.978Z,100104.69
2024-02-29T08:23:39.040Z,100104.13
2024-02-29T08:24:36.134Z,100099.53
2024-02-29T08:25:33.516Z,100104.59
2024-02-29T08:26:30.890Z,100107.28
2024-02-29T08:27:28.624Z,100107.38
2024-02-29T08:28:26.301Z,100110.00
2024-02-29T08:29:23.389Z,100108.78
2024-02-29T08:30:21.054Z,100108.97
2024-02-29T08:31:18.989Z,100110.84
2024-02-29T08:32:16.344Z,100111.75
2024-02-29T08:33:13.627Z,100115.19
2024-02-29T08:34:11.051Z,100117.00
2024-02-29T08:35:09.029Z,100114.56
2024-02-29T08:36:06.300Z,100109.91
2024-02-29T08:37:03.715Z,100109.31
2024-02-29T08:38:01.128Z,100112.63
2024-02-29T08:39:00.127Z,100116.28
2024-02-29T08:39:57.917Z,100107.97
2024-02-29T08:43:05.975Z,100115.53
2024-02-29T08:44:04.663Z,100114.69
2024-02-29T08:45:01.937Z,100118.13
2024-02-29T08:45:59.072Z,100114.38
2024-02-29T08:46:56.132Z,100111.59
2024-02-29T08:47:53.115Z,100107.84
2024-02-29T08:48:50.300Z,100107.69
2024-02-29T08:49:47.385Z,100108.16
2024-02-29T08:50:44.523Z,100115.53
2024-02-29T08:51:42.035Z,100109.00
2024-02-29T08:52:40.637Z,100108.28
2024-02-29T08:53:37.747Z,100117.53
2024-02-29T08:54:36.085Z,100111.69
2024-02-29T08:55:33.286Z,100114.50
2024-02-29T08:56:30.410Z,100106.66
2024-02-29T08:57:27.571Z,100108.19
2024-02-29T08:58:25.047Z,100116.34
2024-02-29T08:59:22.592Z,100111.53
2024-02-29T09:00:20.337Z,100105.66
2024-02-29T09:01:18.072Z,100108.84
2024-02-29T09:02:15.330Z,100106.66
2024-02-29T09:03:14.925Z,100106.22
2024-02-29T09:04:12.076Z,100101.28
2024-02-29T09:05:09.609Z,100099.41
2024-02-29T09:06:06.869Z,100106.59
2024-02-29T09:07:04.910Z,100098.72
2024-02-29T09:08:02.575Z,100114.72
2024-02-29T09:08:59.945Z,100116.38
2024-02-29T09:09:57.123Z,100115.84
2024-02-29T09:10:54.481Z,100111.87
2024-02-29T09:11:52.415Z,100105.25
2024-02-29T09:12:49.478Z,100112.97
2024-02-29T09:13:47.282Z,100116.88
2024-02-29T09:14:47.718Z,100109.19
2024-02-29T09:15:45.634Z,100100.44
2024-02-29T09:16:46.051Z,100099.56
2024-02-29T09:17:43.811Z,100090.00
2024-02-29T09:18:41.225Z,100090.25
2024-02-29T09:19:38.495Z,100089.69
2024-02-29T09:20:35.568Z,100092.41
2024-02-29T09:21:32.843Z,100092.91
2024-02-29T09:22:29.985Z,100094.16
2024-02-29T09:23:27.755Z,100083.53
2024-02-29T09:24:25.021Z,100077.78
2024-02-29T09:25:22.237Z,100078.09
2024-02-29T09:26:19.899Z,100073.47
2024-02-29T09:27:17.185Z,100075.75
2024-02-29T09:28:14.464Z,100075.34
2024-02-29T09:29:11.825Z,100075.31
2024-02-29T09:30:09.278Z,100070.87
2024-02-29T09:31:06.599Z,100067.41
2024-02-29T09:32:06.614Z,100068.56
2024-02-29T09:33:04.014Z,100069.88
2024-02-29T09:34:01.323Z,100055.78
2024-02-29T09:34:58.492Z,100059.53
2024-02-29T09:35:59.236Z,100066.84
2024-02-29T09:36:56.645Z,100066.69
2024-02-29T09:37:53.796Z,100055.81
2024-02-29T09:38:50.987Z,100066.66
2024-02-29T09:39:48.635Z,100060.78
2024-02-29T09:40:49.669Z,100060.97
2024-02-29T09:42:11.168Z,100066.03
2024-02-29T09:43:11.957Z,100061.44
2024-02-29T09:44:10.080Z,100055.56
2024-02-29T09:45:08.630Z,100061.34
2024-02-29T09:46:07.234Z,100051.44
2024-02-29T09:47:06.327Z,100054.34
2024-02-29T09:48:04.696Z,100050.22
2024-02-29T09:49:01.955Z,100047.44
2024-02-29T09:50:05.031Z,100044.97
2024-02-29T09:51:04.034Z,100048.34
2024-02-29T09:52:01.613Z,100041.56
2024-02-29T09:53:00.196Z,100047.72
2024-02-29T09:53:58.766Z,100045.00
2024-02-29T09:54:56.984Z,100052.03
2024-02-29T09:55:54.177Z,100045.16
2024-02-29T09:56:52.009Z,100047.41
2024-02-29T09:57:49.255Z,100047.91
2024-02-29T09:58:46.557Z,100036.16
2024-02-29T09:59:44.162Z,100039.06
2024-02-29T10:00:41.298Z,100039.50
2024-02-29T10:01:38.572Z,100036.16
2024-02-29T10:02:36.586Z,100040.56
2024-02-29T10:03:33.874Z,100037.88
2024-02-29T10:04:31.053Z,100040.19
2024-02-29T10:05:28.302Z,100034.91
2024-02-29T10:06:25.935Z,100037.00
2024-02-29T10:07:23.150Z,100039.69
2024-02-29T10:08:20.416Z,100038.47
2024-02-29T10:09:17.612Z,100038.28
2024-02-29T10:10:16.338Z,100044.41
2024-02-29T10:11:13.802Z,100045.53
2024-02-29T10:12:16.875Z,100044.50
2024-02-29T10:13:14.089Z,100041.78
2024-02-29T10:14:28.336Z,100039.50
2024-02-29T10:15:28.930Z,100041.34
2024-02-29T10:16:28.574Z,100042.44
2024-02-29T10:17:26.190Z,100037.31
2024-02-29T10:18:23.345Z,100035.09
2024-02-29T10:19:21.628Z,100039.22
2024-02-29T10:20:21.713Z,100032.59
2024-02-29T10:21:18.921Z,100032.38
2024-02-29T10:22:22.205Z,100034.88
2024-02-29T10:23:19.225Z,100025.53
2024-02-29T10:24:16.500Z,100023.00
2024-02-29T10:25:14.689Z,100020.72
2024-02-29T10:26:11.982Z,100027.81
2024-02-29T10:27:09.858Z,100025.34
2024-02-29T10:28:07.320Z,100019.06
2024-02-29T10:29:10.138Z,100019.47
2024-02-29T10:30:11.648Z,100020.72
2024-02-29T10:31:08.937Z,100014.22
2024-02-29T10:32:06.186Z,100021.56
2024-02-29T10:33:04.643Z,100016.75
2024-02-29T10:34:01.794Z,100018.62
2024-02-29T10:34:58.894Z,100015.28
2024-02-29T10:35:56.396Z,100014.88
2024-02-29T10:36:53.455Z,100013.00
2024-02-29T10:37:55.211Z,100005.47
2024-02-29T10:38:52.725Z,100008.81
2024-02-29T10:39:49.892Z,100005.69
2024-02-29T10:40:51.075Z,100015.72
2024-02-29T10:41:51.782Z,100009.47
2024-02-29T10:42:58.083Z,100003.78
2024-02-29T10:43:56.357Z,100005.47
2024-02-29T10:44:54.367Z,100003.16
2024-02-29T10:45:52.349Z,100004.03
2024-02-29T10:46:51.454Z,99996.91
2024-02-29T10:48:00.481Z,99997.75
2024-02-29T10:49:36.767Z,99992.06
2024-02-29T10:50:50.093Z,99996.06
2024-02-29T10:52:06.126Z,99993.28
2024-02-29T10:53:20.829Z,99987.25
2024-02-29T10:54:21.938Z,99991.06
2024-02-29T10:55:26.143Z,99991.25
2024-02-29T10:56:24.915Z,99990.62
2024-02-29T10:57:28.068Z,99995.44
2024-02-29T10:58:29.711Z,99983.72
2024-02-29T10:59:26.953Z,99985.78
2024-02-29T11:00:24.314Z,99985.16
2024-02-29T11:01:21.631Z,99977.41
2024-02-29T11:02:19.722Z,99979.09
2024-02-29T11:03:17.148Z,99981.16